createdAt,value
2018-07-26T00:15:08.348Z,20.20
2018-07-26T00:20:04.841Z,20.10
2018-07-26T00:25:01.324Z,20.10
2018-07-26T00:29:56.795Z,20.10
2018-07-26T00:40:08.596Z,20.00
2018-07-26T00:45:05.772Z,20.00
2018-07-26T00:50:02.697Z,19.90
2018-07-26T00:54:59.946Z,19.90
2018-07-26T00:59:55.537Z,19.90
2018-07-26T01:04:59.020Z,19.80
2018-07-26T01:10:03.160Z,19.80
2018-07-26T01:15:04.535Z,19.70
2018-07-26T01:20:00.850Z,19.60
2018-07-26T01:24:58.635Z,19.40
2018-07-26T01:29:53.971Z,19.40
2018-07-26T01:34:59.310Z,19.30
2018-07-26T01:40:03.597Z,19.20
2018-07-26T01:45:24.152Z,19.20
2018-07-26T01:50:20.820Z,19.00
2018-07-26T02:01:16.636Z,19.10
2018-07-26T02:06:11.419Z,19.10
2018-07-26T02:11:09.708Z,18.90
2018-07-26T02:16:07.039Z,18.90
2018-07-26T02:21:05.031Z,18.90
2018-07-26T02:26:07.644Z,18.90
2018-07-26T02:31:06.513Z,18.80
2018-07-26T02:36:02.954Z,18.80
2018-07-26T02:40:58.326Z,18.80
2018-07-26T02:45:53.653Z,18.90
2018-07-26T02:50:51.450Z,18.90
2018-07-26T02:55:48.723Z,18.80
2018-07-26T03:00:45.651Z,18.70
2018-07-26T03:05:43.393Z,18.60
2018-07-26T03:10:38.223Z,18.60
2018-07-26T03:15:57.809Z,18.60
2018-07-26T03:21:04.259Z,18.60
2018-07-26T03:26:00.016Z,18.50
2018-07-26T03:35:53.440Z,18.40
2018-07-26T03:40:54.329Z,18.30
2018-07-26T03:45:52.749Z,18.20
2018-07-26T03:50:52.681Z,18.30
2018-07-26T03:55:47.433Z,18.40
2018-07-26T04:00:45.306Z,18.50
2018-07-26T04:05:42.797Z,18.60
2018-07-26T04:10:37.772Z,18.60
2018-07-26T04:15:33.635Z,18.50
2018-07-26T04:20:32.153Z,18.70
2018-07-26T04:25:28.999Z,19.20
2018-07-26T04:35:21.613Z,23.10
2018-07-26T04:40:16.998Z,23.30
2018-07-26T04:45:13.311Z,24.90
2018-07-26T05:00:03.580Z,26.70
2018-07-26T05:09:53.962Z,29.70
2018-07-26T05:14:50.878Z,27.20
2018-07-26T05:19:46.704Z,27.50
2018-07-26T05:24:56.194Z,26.70
2018-07-26T05:29:52.685Z,26.30
2018-07-26T05:34:57.309Z,26.60
2018-07-26T05:40:03.024Z,27.40
2018-07-26T05:45:07.651Z,28.80
2018-07-26T05:50:04.981Z,27.90
2018-07-26T05:55:00.252Z,25.80
2018-07-26T05:59:56.725Z,29.20
2018-07-26T06:04:52.004Z,31.90
2018-07-26T06:09:47.730Z,33.00
2018-07-26T06:14:46.021Z,34.20
2018-07-26T06:19:47.004Z,36.90
2018-07-26T06:24:44.090Z,38.10
2018-07-26T06:29:38.968Z,37.70
2018-07-26T06:34:36.133Z,39.40
2018-07-26T06:39:33.432Z,39.60
2018-07-26T06:44:30.031Z,39.80
2018-07-26T06:49:50.892Z,40.00
2018-07-26T06:54:48.629Z,40.10
2018-07-26T06:59:44.193Z,38.90
2018-07-26T07:04:41.917Z,36.30
2018-07-26T07:09:37.708Z,32.30
2018-07-26T07:14:40.642Z,30.50
2018-07-26T07:19:36.680Z,30.30
2018-07-26T07:24:33.494Z,31.10
2018-07-26T07:29:30.284Z,33.40
2018-07-26T07:39:21.838Z,35.00
2018-07-26T07:44:17.846Z,36.10
2018-07-26T07:49:14.872Z,36.50
2018-07-26T07:54:11.398Z,36.60
2018-07-26T07:59:14.557Z,35.60
2018-07-26T08:04:12.061Z,35.50
2018-07-26T08:09:12.123Z,35.80
2018-07-26T08:19:03.725Z,37.60
2018-07-26T08:23:58.851Z,37.80
2018-07-26T08:28:55.511Z,37.80
2018-07-26T08:33:50.496Z,39.00
2018-07-26T08:43:55.261Z,37.20
2018-07-26T08:49:21.097Z,36.80
2018-07-26T08:54:25.661Z,40.00
2018-07-26T08:59:21.213Z,40.60
2018-07-26T09:09:14.579Z,40.60
2018-07-26T09:14:10.425Z,39.10
2018-07-26T09:19:06.698Z,39.20
2018-07-26T09:24:05.431Z,41.80
2018-07-26T09:29:03.417Z,41.40
2018-07-26T09:33:59.102Z,38.70
2018-07-26T09:38:54.093Z,36.10
2018-07-26T09:43:49.330Z,38.40
2018-07-26T09:53:40.785Z,44.80
2018-07-26T09:58:36.357Z,40.10
2018-07-26T10:03:43.177Z,39.80
2018-07-26T10:08:40.283Z,40.00
2018-07-26T10:13:35.815Z,41.80
2018-07-26T10:23:28.726Z,42.20
2018-07-26T10:33:34.908Z,39.60
2018-07-26T10:38:38.643Z,37.30
2018-07-26T10:43:35.597Z,41.00
2018-07-26T10:48:31.449Z,42.60
2018-07-26T10:53:27.724Z,40.80
2018-07-26T10:58:26.106Z,40.00
2018-07-26T11:14:16.460Z,39.10
2018-07-26T11:19:20.432Z,40.80
2018-07-26T11:24:24.949Z,38.10
2018-07-26T11:29:28.454Z,36.20
2018-07-26T11:34:23.795Z,34.80
2018-07-26T11:39:20.293Z,34.10
2018-07-26T11:44:20.798Z,34.60
2018-07-26T11:49:17.720Z,34.30
2018-07-26T11:54:20.023Z,34.00
2018-07-26T11:59:41.908Z,34.10
2018-07-26T12:04:49.349Z,33.80
2018-07-26T12:09:46.034Z,33.40
2018-07-26T12:14:42.076Z,33.10
2018-07-26T12:19:37.939Z,33.00
2018-07-26T12:37:37.238Z,33.20
2018-07-26T12:42:33.796Z,33.20
2018-07-26T12:47:29.507Z,33.00
2018-07-26T12:52:25.661Z,32.50
2018-07-26T13:02:17.362Z,32.90
2018-07-26T13:07:15.041Z,33.40
2018-07-26T13:13:23.634Z,33.30
2018-07-26T13:18:19.107Z,33.30
2018-07-26T13:23:15.811Z,33.00
2018-07-26T13:28:13.096Z,32.60
2018-07-26T13:33:09.508Z,33.30
2018-07-26T13:38:05.912Z,33.40
2018-07-26T13:43:03.730Z,32.70
2018-07-26T13:47:58.892Z,31.90
2018-07-26T13:52:55.104Z,31.60
2018-07-26T13:57:51.048Z,31.80
2018-07-26T14:02:47.862Z,32.20
2018-07-26T14:08:06.248Z,32.20
2018-07-26T14:13:11.367Z,32.50
2018-07-26T14:18:07.858Z,32.70
2018-07-26T14:23:04.631Z,32.60
2018-07-26T14:28:08.868Z,32.10
2018-07-26T14:33:08.617Z,31.80
2018-07-26T14:43:26.152Z,32.30
2018-07-26T14:53:51.683Z,32.30
2018-07-26T14:58:47.513Z,32.20
2018-07-26T15:03:43.953Z,32.30
2018-07-26T15:08:41.469Z,32.30
2018-07-26T15:13:42.560Z,32.30
2018-07-26T15:18:40.182Z,32.00
2018-07-26T15:23:36.571Z,31.80
2018-07-26T15:28:33.200Z,31.70
2018-07-26T15:33:35.825Z,31.80
2018-07-26T15:43:25.923Z,32.00
2018-07-26T15:48:24.027Z,32.10
2018-07-26T15:53:21.632Z,32.10
2018-07-26T15:58:17.900Z,31.90
2018-07-26T16:03:14.604Z,31.90
2018-07-26T16:08:12.577Z,31.80
2018-07-26T16:13:08.294Z,31.60
2018-07-26T16:23:04.351Z,31.60
2018-07-26T16:27:59.990Z,31.40
2018-07-26T16:33:04.342Z,31.60
2018-07-26T16:38:09.560Z,31.60
2018-07-26T16:43:15.761Z,31.60
2018-07-26T16:58:20.464Z,31.50
2018-07-26T17:03:16.467Z,31.40
2018-07-26T17:08:12.426Z,31.30
2018-07-26T17:13:17.723Z,31.20
2018-07-26T17:18:17.421Z,31.00
2018-07-26T17:23:12.844Z,30.90
2018-07-26T17:28:11.263Z,30.70
2018-07-26T17:33:06.355Z,30.50
2018-07-26T17:38:04.345Z,30.40
2018-07-26T17:43:00.320Z,30.30
2018-07-26T17:47:59.541Z,30.30
2018-07-26T17:52:55.112Z,30.20
2018-07-26T17:58:13.375Z,30.00
2018-07-26T18:03:16.538Z,29.90
2018-07-26T18:08:11.881Z,29.80
2018-07-26T18:13:07.350Z,29.70
2018-07-26T18:18:03.386Z,29.70
2018-07-26T18:23:26.469Z,29.50
2018-07-26T18:28:49.201Z,29.30
2018-07-26T18:34:07.206Z,29.20
2018-07-26T18:39:12.152Z,29.00
2018-07-26T18:44:08.049Z,28.90
2018-07-26T18:49:04.642Z,28.80
2018-07-26T18:54:00.244Z,28.60
2018-07-26T18:58:55.272Z,28.60
2018-07-26T19:03:52.758Z,28.40
2018-07-26T19:08:55.176Z,28.40
2018-07-26T19:13:59.490Z,28.30
2018-07-26T19:19:03.654Z,28.20
2018-07-26T19:23:59.160Z,28.10
2018-07-26T19:28:55.030Z,28.00
2018-07-26T19:33:50.872Z,27.80
2018-07-26T19:38:54.923Z,27.60
2018-07-26T19:43:50.956Z,27.50
2018-07-26T19:48:46.382Z,27.40
2018-07-26T19:53:41.525Z,27.30
2018-07-26T19:58:45.286Z,27.10
2018-07-26T20:03:51.943Z,27.00
2018-07-26T20:08:53.025Z,26.90
2018-07-26T20:18:47.000Z,26.80
2018-07-26T20:23:43.238Z,26.70
2018-07-26T20:28:40.045Z,26.60
2018-07-26T20:33:35.948Z,26.50
2018-07-26T20:38:32.538Z,26.40
2018-07-26T20:43:28.472Z,26.30
2018-07-26T20:48:24.795Z,26.30
2018-07-26T20:53:20.538Z,26.20
2018-07-26T20:58:16.395Z,26.10
2018-07-26T21:03:11.382Z,26.00
2018-07-26T21:08:06.607Z,25.90
2018-07-26T21:13:03.204Z,25.80
2018-07-26T21:17:58.995Z,25.60
2018-07-26T21:22:56.600Z,25.50
2018-07-26T21:27:59.399Z,25.50
2018-07-26T21:32:55.510Z,25.40
2018-07-26T21:37:53.018Z,25.30
2018-07-26T21:42:48.858Z,25.20
2018-07-26T21:52:40.534Z,24.80
2018-07-26T21:57:36.748Z,24.70
2018-07-26T22:02:32.714Z,24.60
2018-07-26T22:07:27.789Z,24.40
2018-07-26T22:12:24.070Z,24.30
2018-07-26T22:17:31.985Z,24.30
2018-07-26T22:22:27.428Z,24.20
2018-07-26T22:27:23.763Z,24.00
2018-07-26T22:32:19.853Z,23.90
2018-07-26T22:37:15.828Z,23.80
2018-07-26T22:42:13.256Z,23.70
2018-07-26T22:47:10.080Z,23.60
2018-07-26T22:52:08.366Z,23.60
2018-07-26T22:57:07.255Z,23.50
2018-07-26T23:02:05.735Z,23.30
2018-07-26T23:07:05.368Z,23.20
2018-07-26T23:12:00.729Z,23.20
2018-07-26T23:16:57.399Z,23.10
2018-07-26T23:21:53.130Z,23.00
2018-07-26T23:26:48.971Z,22.90
2018-07-26T23:31:43.954Z,22.90
2018-07-26T23:36:41.898Z,22.80
2018-07-26T23:41:39.757Z,22.70
2018-07-26T23:46:37.376Z,22.70
2018-07-26T23:51:34.030Z,22.60
2018-07-26T23:56:29.584Z,22.50
